Terminal Aerodrome Forecast
Issued by NWS Riverton, WY

Home | Current Version | Previous Version | Text Only | Print | Product List | Glossary On
Versions: 1 2 3 4 5 6 7 8 9 10 11 12 13 14 15 16 17
000
FTUS45 KRIW 141734
TAFRIW
TAF
KRIW 141734Z 1418/1518 31012KT P6SM SCT200
     FM150800 27006KT P6SM VCFG FEW200
     FM151600 25006KT P6SM SCT200=

USA.gov is the U.S. government's official web portal to all federal, state and local government web resources and services.